Time;durP1;ratioP1;P1;durP2;ratioP2;P2;SDS_P1;SDS_P2;PMS_P1;PMS_P2;Temp;Humidity;BMP_temperature;BMP_pressure;BME280_temperature;BME280_humidity;BME280_pressure;Samples;Min_cycle;Max_cycle;Signal;HPM_P1;HPM_P2
2022/12/28 00:00:33;;;;;;;6.65;3.55;;;17.80;99.90;;;;;;4213051;28;20287;-80
2022/12/28 00:02:36;;;;;;;5.55;3.60;;;17.80;99.90;;;;;;4213116;28;20267;-80
2022/12/28 00:04:40;;;;;;;6.20;4.28;;;17.70;99.90;;;;;;4212375;28;20214;-80
2022/12/28 00:06:42;;;;;;;4.90;3.63;;;17.80;99.90;;;;;;4207312;28;20245;-80
2022/12/28 00:08:44;;;;;;;5.63;4.15;;;17.70;99.90;;;;;;4209368;28;20210;-80
2022/12/28 00:10:47;;;;;;;5.72;3.33;;;17.70;99.90;;;;;;4209824;28;20203;-80
2022/12/28 00:12:49;;;;;;;6.50;3.65;;;17.70;99.90;;;;;;4213353;28;20214;-80
2022/12/28 00:14:51;;;;;;;6.75;4.18;;;17.80;99.90;;;;;;4213171;28;20716;-80
2022/12/28 00:16:54;;;;;;;6.18;3.75;;;17.80;99.90;;;;;;4210995;28;20268;-80
2022/12/28 00:18:57;;;;;;;5.78;3.40;;;17.80;99.90;;;;;;4205150;28;20215;-80
2022/12/28 00:21:01;;;;;;;4.65;3.78;;;17.70;99.90;;;;;;4196249;28;20262;-80
2022/12/28 00:23:05;;;;;;;4.88;3.60;;;17.80;99.90;;;;;;4204960;28;20230;-80
2022/12/28 00:25:09;;;;;;;4.30;3.30;;;17.70;99.90;;;;;;4213244;28;20593;-80
2022/12/28 00:27:11;;;;;;;6.95;3.42;;;17.70;99.90;;;;;;4202995;28;20215;-80
2022/12/28 00:29:13;;;;;;;6.00;3.65;;;17.80;99.90;;;;;;4209678;28;20230;-80
2022/12/28 00:31:16;;;;;;;6.40;3.85;;;17.80;99.90;;;;;;4212691;28;20210;-80
2022/12/28 00:33:19;;;;;;;6.43;3.83;;;17.70;99.90;;;;;;4202129;28;20219;-80
2022/12/28 00:35:21;;;;;;;5.97;3.92;;;17.70;99.90;;;;;;4206966;28;20244;-80
2022/12/28 00:37:25;;;;;;;5.70;3.42;;;17.70;99.90;;;;;;4211802;28;20379;-80
2022/12/28 00:39:28;;;;;;;4.90;3.70;;;17.70;99.90;;;;;;4212376;28;20255;-80
2022/12/28 00:41:30;;;;;;;4.38;3.40;;;17.70;99.90;;;;;;4212826;28;20276;-80
2022/12/28 00:43:33;;;;;;;4.88;3.10;;;17.70;99.90;;;;;;4212865;28;20287;-81
2022/12/28 00:45:35;;;;;;;6.82;3.70;;;17.70;99.90;;;;;;4199930;28;20215;-80
2022/12/28 00:47:37;;;;;;;5.20;3.50;;;17.70;99.90;;;;;;4201195;28;20264;-80
2022/12/28 00:49:40;;;;;;;4.07;3.40;;;17.70;99.90;;;;;;4212934;28;20214;-81
2022/12/28 00:51:42;;;;;;;5.35;3.17;;;17.70;99.90;;;;;;4214433;28;20219;-80
2022/12/28 00:53:46;;;;;;;6.03;3.97;;;17.70;99.90;;;;;;4205734;28;20215;-80
2022/12/28 00:55:48;;;;;;;4.95;3.30;;;17.70;99.90;;;;;;4215367;28;20211;-80
2022/12/28 00:57:51;;;;;;;4.55;3.10;;;17.70;99.90;;;;;;4215412;28;20299;-80
2022/12/28 00:59:53;;;;;;;3.78;3.08;;;17.70;99.90;;;;;;4215842;28;20210;-80
2022/12/28 01:01:55;;;;;;;4.57;3.33;;;17.60;99.90;;;;;;4213938;28;20268;-80
2022/12/28 01:03:58;;;;;;;4.07;2.85;;;17.70;99.90;;;;;;4205282;28;20620;-80
2022/12/28 01:06:05;;;;;;;5.20;3.28;;;17.70;99.90;;;;;;4208231;28;20555;-81
2022/12/28 01:08:07;;;;;;;6.60;3.50;;;17.70;99.90;;;;;;4211249;28;20210;-80
2022/12/28 01:10:11;;;;;;;3.80;3.28;;;17.60;99.90;;;;;;4213974;28;20210;-80
2022/12/28 01:12:13;;;;;;;4.45;3.60;;;17.70;99.90;;;;;;4198783;28;20223;-80
2022/12/28 01:14:16;;;;;;;4.78;3.47;;;17.70;99.90;;;;;;4207374;28;20268;-80
2022/12/28 01:16:21;;;;;;;4.38;3.28;;;17.70;99.90;;;;;;4199656;28;20261;-80
2022/12/28 01:18:23;;;;;;;4.85;2.92;;;17.60;99.90;;;;;;4212254;28;20310;-80
2022/12/28 01:20:26;;;;;;;3.83;3.20;;;17.60;99.90;;;;;;4203139;28;20277;-81
2022/12/28 01:22:28;;;;;;;4.78;3.00;;;17.70;99.90;;;;;;4199015;28;20240;-81
2022/12/28 01:24:30;;;;;;;4.90;3.40;;;17.70;99.90;;;;;;4211001;28;20207;-80
2022/12/28 01:26:34;;;;;;;5.38;3.30;;;17.60;99.90;;;;;;4215123;28;20237;-80
2022/12/28 01:28:37;;;;;;;4.90;3.20;;;17.60;99.90;;;;;;4215708;28;20263;-80
2022/12/28 01:30:39;;;;;;;5.47;3.35;;;17.60;99.90;;;;;;4209875;28;20282;-80
2022/12/28 01:32:42;;;;;;;4.40;3.10;;;17.60;99.90;;;;;;4201070;28;20272;-80
2022/12/28 01:34:44;;;;;;;4.45;3.20;;;17.70;99.90;;;;;;4214829;28;20260;-80
2022/12/28 01:36:47;;;;;;;5.57;3.40;;;17.60;99.90;;;;;;4208986;28;20211;-80
2022/12/28 01:38:53;;;;;;;5.15;3.58;;;17.70;99.90;;;;;;4198416;28;20207;-80
2022/12/28 01:40:55;;;;;;;5.82;3.13;;;17.70;99.90;;;;;;4215057;28;20211;-80
2022/12/28 01:42:59;;;;;;;4.80;3.20;;;17.70;99.90;;;;;;4213752;28;20210;-80
2022/12/28 01:45:16;;;;;;;3.85;2.90;;;17.60;99.90;;;;;;4204937;28;20261;-80
2022/12/28 01:47:22;;;;;;;4.53;3.10;;;17.60;99.90;;;;;;4208600;28;20207;-80
2022/12/28 01:49:29;;;;;;;4.75;3.38;;;17.60;99.90;;;;;;4209334;28;20210;-80
2022/12/28 01:51:37;;;;;;;4.63;3.47;;;17.60;99.90;;;;;;4212268;28;20330;-80
2022/12/28 01:53:39;;;;;;;5.68;3.25;;;17.60;99.90;;;;;;4201289;28;20267;-80
2022/12/28 01:55:42;;;;;;;3.90;3.05;;;17.60;99.90;;;;;;4212164;28;20259;-79
2022/12/28 01:57:48;;;;;;;4.43;3.17;;;17.60;99.90;;;;;;4200676;28;20724;-79
2022/12/28 01:59:57;;;;;;;4.55;3.22;;;17.60;99.90;;;;;;4214735;28;20627;-80
2022/12/28 02:01:59;;;;;;;4.95;3.53;;;17.60;99.90;;;;;;4213987;28;20252;-80
2022/12/28 02:04:02;;;;;;;4.32;2.88;;;17.60;99.90;;;;;;4204217;28;20226;-80
2022/12/28 02:06:08;;;;;;;4.50;2.90;;;17.60;99.90;;;;;;4198863;28;20219;-80
2022/12/28 02:08:16;;;;;;;4.13;3.03;;;17.60;99.90;;;;;;4210888;28;20264;-80
2022/12/28 02:10:20;;;;;;;4.18;3.05;;;17.60;99.90;;;;;;4209823;28;20210;-80
2022/12/28 02:12:24;;;;;;;3.95;2.88;;;17.60;99.90;;;;;;4215002;28;20260;-80
2022/12/28 02:14:27;;;;;;;4.07;2.90;;;17.60;99.90;;;;;;4211071;28;20207;-80
2022/12/28 02:16:31;;;;;;;4.47;2.90;;;17.60;99.90;;;;;;4208728;28;20207;-80
2022/12/28 02:18:33;;;;;;;4.38;3.13;;;17.60;99.90;;;;;;4211608;28;20242;-80
2022/12/28 02:20:44;;;;;;;4.70;3.00;;;17.60;99.90;;;;;;4209962;28;20545;-80
2022/12/28 02:23:16;;;;;;;4.25;3.15;;;17.60;99.90;;;;;;4206160;28;20207;-80
2022/12/28 02:25:43;;;;;;;5.35;3.10;;;17.50;99.90;;;;;;4206258;28;20256;-81
2022/12/28 02:27:56;;;;;;;3.90;2.70;;;17.60;99.90;;;;;;4199619;28;20211;-80
2022/12/28 02:30:07;;;;;;;4.28;2.70;;;17.60;99.90;;;;;;4204778;28;20255;-80
2022/12/28 02:32:32;;;;;;;4.40;2.90;;;17.50;99.90;;;;;;4208033;28;20521;-80
2022/12/28 02:34:40;;;;;;;5.00;2.90;;;17.50;99.90;;;;;;4199331;28;20211;-81
2022/12/28 02:36:49;;;;;;;3.53;2.63;;;17.50;99.90;;;;;;4208772;28;20264;-80
2022/12/28 02:38:55;;;;;;;3.38;2.70;;;17.60;99.90;;;;;;4205373;28;20822;-80
2022/12/28 02:41:01;;;;;;;3.67;2.83;;;17.50;99.90;;;;;;4205227;28;20655;-80
2022/12/28 02:43:03;;;;;;;3.15;2.65;;;17.60;99.90;;;;;;4214536;28;20887;-80
2022/12/28 02:50:09;;;;;;;5.13;2.90;;;17.50;99.90;;;;;;4208940;28;20658;-80
2022/12/28 02:52:21;;;;;;;5.05;3.38;;;17.50;99.90;;;;;;4198564;28;20211;-80
2022/12/28 02:57:23;;;;;;;3.47;2.40;;;17.50;99.90;;;;;;4199430;28;20211;-80
2022/12/28 02:59:51;;;;;;;3.28;2.50;;;17.60;99.90;;;;;;4212120;28;20264;-81
2022/12/28 03:02:14;;;;;;;3.03;2.38;;;17.50;99.90;;;;;;4212306;28;20666;-80
2022/12/28 03:04:27;;;;;;;5.18;3.08;;;17.50;99.90;;;;;;4203401;28;20218;-80
2022/12/28 03:09:12;;;;;;;3.55;2.47;;;17.50;99.90;;;;;;4208697;28;20189;-81
2022/12/28 03:11:19;;;;;;;3.53;2.60;;;17.50;99.90;;;;;;4202790;28;20223;-81
2022/12/28 03:13:45;;;;;;;3.58;2.60;;;17.50;99.90;;;;;;4199727;28;20323;-81
2022/12/28 03:15:47;;;;;;;4.60;2.50;;;17.50;99.90;;;;;;4213358;28;20218;-80
2022/12/28 03:32:22;;;;;;;4.07;2.40;;;17.50;99.90;;;;;;4195455;28;20219;-80
2022/12/28 03:34:26;;;;;;;4.00;2.88;;;17.50;99.90;;;;;;4213275;28;21498;-80
2022/12/28 03:36:36;;;;;;;3.13;2.50;;;17.50;99.90;;;;;;4209451;28;20260;-81
2022/12/28 03:38:49;;;;;;;3.20;2.40;;;17.40;99.90;;;;;;4196258;28;20252;-80
2022/12/28 03:40:55;;;;;;;4.03;2.80;;;17.50;99.90;;;;;;4212764;28;20210;-81
2022/12/28 03:45:29;;;;;;;2.97;2.05;;;17.50;99.90;;;;;;4213691;28;20224;-80
2022/12/28 03:47:33;;;;;;;2.58;2.17;;;17.50;99.90;;;;;;4208939;28;20223;-80
2022/12/28 03:49:37;;;;;;;3.97;2.38;;;17.50;99.90;;;;;;4200415;28;20276;-81
2022/12/28 03:51:41;;;;;;;3.65;2.40;;;17.40;99.90;;;;;;4208101;28;20268;-80
2022/12/28 03:53:46;;;;;;;4.20;2.50;;;17.50;99.90;;;;;;4199627;28;20211;-80
2022/12/28 03:55:48;;;;;;;3.45;2.60;;;17.50;99.90;;;;;;4199493;28;20612;-80
2022/12/28 03:57:51;;;;;;;3.63;2.53;;;17.50;99.90;;;;;;4211181;28;20271;-80
2022/12/28 03:59:53;;;;;;;3.25;2.40;;;17.50;99.90;;;;;;4212745;28;20215;-81
2022/12/28 04:01:56;;;;;;;4.20;2.53;;;17.40;99.90;;;;;;4211555;28;20271;-80
2022/12/28 04:03:58;;;;;;;4.65;2.58;;;17.50;99.90;;;;;;4202700;28;20210;-80
2022/12/28 04:06:02;;;;;;;3.65;2.72;;;17.40;99.90;;;;;;4197752;28;20260;-81
2022/12/28 04:08:04;;;;;;;3.97;2.20;;;17.40;99.90;;;;;;4209528;28;20237;-80
2022/12/28 04:10:07;;;;;;;2.38;1.98;;;17.40;99.90;;;;;;4212590;28;20634;-80
2022/12/28 04:12:11;;;;;;;3.67;2.45;;;17.40;99.90;;;;;;4201113;28;20214;-81
2022/12/28 04:14:13;;;;;;;3.42;2.17;;;17.40;99.90;;;;;;4197235;28;20289;-80
2022/12/28 04:16:16;;;;;;;3.50;2.30;;;17.40;99.90;;;;;;4201743;28;20219;-80
2022/12/28 04:18:18;;;;;;;3.67;2.35;;;17.40;99.90;;;;;;4212955;28;20727;-80
2022/12/28 04:20:20;;;;;;;2.92;2.20;;;17.50;99.90;;;;;;4213076;28;20240;-80
2022/12/28 04:22:24;;;;;;;5.05;2.53;;;17.40;99.90;;;;;;4210191;28;20732;-81
2022/12/28 04:24:26;;;;;;;3.30;2.50;;;17.40;99.90;;;;;;4209852;28;20236;-80
2022/12/28 04:26:29;;;;;;;3.38;2.30;;;17.40;99.90;;;;;;4215601;28;20218;-80
2022/12/28 04:28:32;;;;;;;4.03;2.50;;;17.50;99.90;;;;;;4216662;28;20334;-80
2022/12/28 04:30:34;;;;;;;3.67;2.20;;;17.40;99.90;;;;;;4215882;28;20259;-80
2022/12/28 04:32:37;;;;;;;2.35;1.90;;;17.40;99.90;;;;;;4212359;28;20988;-80
2022/12/28 04:34:39;;;;;;;3.40;2.10;;;17.50;99.90;;;;;;4215676;28;20606;-81
2022/12/28 04:36:41;;;;;;;3.67;2.30;;;17.40;99.90;;;;;;4216058;28;20263;-80
2022/12/28 04:38:45;;;;;;;3.90;2.47;;;17.40;99.90;;;;;;4215866;28;20233;-80
2022/12/28 04:40:47;;;;;;;2.67;1.80;;;17.40;99.90;;;;;;4211506;28;20236;-80
2022/12/28 04:42:50;;;;;;;4.00;2.60;;;17.40;99.90;;;;;;4206466;28;20207;-80
2022/12/28 04:44:52;;;;;;;3.20;2.00;;;17.40;99.90;;;;;;4208730;28;20207;-81
2022/12/28 04:46:54;;;;;;;2.22;1.98;;;17.40;99.90;;;;;;4205814;28;20203;-80
2022/12/28 04:48:57;;;;;;;2.97;2.28;;;17.40;99.90;;;;;;4211048;28;20233;-80
2022/12/28 04:51:05;;;;;;;3.83;2.25;;;17.40;99.90;;;;;;4202176;28;20267;-81
2022/12/28 04:53:07;;;;;;;3.15;2.20;;;17.40;99.90;;;;;;4215866;28;20214;-81
2022/12/28 04:55:11;;;;;;;2.95;2.20;;;17.40;99.90;;;;;;4215872;28;20222;-80
2022/12/28 04:57:14;;;;;;;2.55;1.95;;;17.40;99.90;;;;;;4205357;28;20265;-80
2022/12/28 04:59:17;;;;;;;2.47;2.10;;;17.40;99.90;;;;;;4215694;28;20717;-80
2022/12/28 05:01:20;;;;;;;3.15;2.13;;;17.40;99.90;;;;;;4213624;28;20214;-80
2022/12/28 05:03:22;;;;;;;3.03;2.25;;;17.40;99.90;;;;;;4215273;28;20210;-80
2022/12/28 05:05:24;;;;;;;3.65;2.33;;;17.40;99.90;;;;;;4215529;28;20248;-80
2022/12/28 05:07:28;;;;;;;2.72;2.08;;;17.40;99.90;;;;;;4203081;28;20265;-81
2022/12/28 05:09:30;;;;;;;3.22;1.80;;;17.40;99.90;;;;;;4211496;28;20218;-81
2022/12/28 05:11:34;;;;;;;2.92;2.08;;;17.40;99.90;;;;;;4202346;28;20249;-80
2022/12/28 05:13:36;;;;;;;3.13;1.90;;;17.40;99.90;;;;;;4198003;28;20280;-81
2022/12/28 05:15:38;;;;;;;3.05;2.30;;;17.40;99.90;;;;;;4211961;28;20264;-81
2022/12/28 05:17:41;;;;;;;3.53;2.20;;;17.40;99.90;;;;;;4214625;28;20214;-81
2022/12/28 05:19:43;;;;;;;2.75;1.50;;;17.40;99.90;;;;;;4214722;28;20287;-80
2022/12/28 05:21:45;;;;;;;3.08;2.30;;;17.30;99.90;;;;;;4215001;28;20241;-81
2022/12/28 05:23:48;;;;;;;2.47;1.98;;;17.40;99.90;;;;;;4209426;28;20256;-80
2022/12/28 05:25:53;;;;;;;3.15;1.95;;;17.40;99.90;;;;;;4214897;28;20222;-80
2022/12/28 05:27:56;;;;;;;3.47;2.05;;;17.40;99.90;;;;;;4214923;28;20218;-81
2022/12/28 05:29:59;;;;;;;2.90;1.98;;;17.40;99.90;;;;;;4215539;28;20210;-80
2022/12/28 05:32:01;;;;;;;3.30;2.08;;;17.40;99.90;;;;;;4215387;28;20351;-81
2022/12/28 05:34:03;;;;;;;4.20;2.08;;;17.40;99.90;;;;;;4211572;28;20716;-80
2022/12/28 05:36:11;;;;;;;3.60;1.85;;;17.30;99.90;;;;;;4215507;28;20268;-81
2022/12/28 05:38:13;;;;;;;3.78;2.35;;;17.30;99.90;;;;;;4214272;28;20280;-80
2022/12/28 05:40:16;;;;;;;4.75;2.33;;;17.40;99.90;;;;;;4215224;28;20280;-81
2022/12/28 05:42:18;;;;;;;3.67;2.40;;;17.40;99.90;;;;;;4213874;28;20215;-81
2022/12/28 05:44:22;;;;;;;3.10;2.10;;;17.30;99.90;;;;;;4210957;28;20612;-80
2022/12/28 05:46:27;;;;;;;3.22;2.08;;;17.30;99.90;;;;;;4206912;28;20240;-80
2022/12/28 05:48:32;;;;;;;2.85;2.08;;;17.30;99.90;;;;;;4215332;28;20259;-80
2022/12/28 05:50:34;;;;;;;2.55;1.65;;;17.40;99.90;;;;;;4210072;28;20211;-81
2022/12/28 05:52:36;;;;;;;2.47;2.05;;;17.30;99.90;;;;;;4208260;28;20290;-80
2022/12/28 05:54:39;;;;;;;4.07;1.90;;;17.30;99.90;;;;;;4214347;28;20712;-80
2022/12/28 05:56:41;;;;;;;2.65;1.95;;;17.40;99.90;;;;;;4207320;28;20207;-80
2022/12/28 05:58:44;;;;;;;2.97;1.90;;;17.40;99.90;;;;;;4213964;28;20230;-80
2022/12/28 06:00:48;;;;;;;2.75;2.05;;;17.30;99.90;;;;;;4209616;28;20285;-81
2022/12/28 06:02:51;;;;;;;3.60;2.05;;;17.30;99.90;;;;;;4208404;28;20214;-80
2022/12/28 06:04:53;;;;;;;3.30;2.00;;;17.30;99.90;;;;;;4203444;28;20276;-81
2022/12/28 06:06:55;;;;;;;3.03;1.63;;;17.30;99.90;;;;;;4205284;28;20210;-81
2022/12/28 06:08:58;;;;;;;2.78;1.67;;;17.30;99.90;;;;;;4214186;28;20214;-81
2022/12/28 06:11:01;;;;;;;3.45;1.88;;;17.40;99.90;;;;;;4214908;28;20267;-81
2022/12/28 06:13:03;;;;;;;2.63;2.08;;;17.50;99.90;;;;;;4215115;28;20248;-81
2022/12/28 06:15:07;;;;;;;3.03;2.17;;;17.50;99.90;;;;;;4207189;28;20226;-81
2022/12/28 06:17:11;;;;;;;3.25;1.70;;;17.60;99.90;;;;;;4214405;28;20588;-80
2022/12/28 06:19:14;;;;;;;2.47;1.65;;;17.50;99.90;;;;;;4214034;28;20214;-81
2022/12/28 06:21:18;;;;;;;1.70;1.40;;;17.60;99.90;;;;;;4204308;28;20603;-81
2022/12/28 06:23:22;;;;;;;3.65;1.98;;;17.60;99.90;;;;;;4203266;28;20226;-81
2022/12/28 06:25:24;;;;;;;2.50;1.70;;;17.60;99.90;;;;;;4214740;28;20256;-81
2022/12/28 06:27:27;;;;;;;2.97;2.10;;;17.60;99.90;;;;;;4209140;28;20616;-80
2022/12/28 06:29:29;;;;;;;2.25;1.73;;;17.60;99.90;;;;;;4202318;28;20260;-80
2022/12/28 06:31:34;;;;;;;2.70;1.75;;;17.60;99.90;;;;;;4198041;28;20285;-80
2022/12/28 06:33:38;;;;;;;3.15;1.95;;;17.60;99.90;;;;;;4200976;28;20316;-81
2022/12/28 06:35:40;;;;;;;3.97;2.00;;;17.60;99.90;;;;;;4205258;28;20218;-80
2022/12/28 06:37:43;;;;;;;2.40;1.60;;;17.70;99.90;;;;;;4214110;28;20257;-80
2022/12/28 06:39:45;;;;;;;3.05;1.70;;;17.70;99.90;;;;;;4212742;28;20233;-80
2022/12/28 06:41:48;;;;;;;2.20;1.55;;;17.70;99.90;;;;;;4203702;28;20210;-81
2022/12/28 06:43:51;;;;;;;2.00;1.50;;;17.70;99.90;;;;;;4213951;28;20260;-80
2022/12/28 06:45:57;;;;;;;2.35;1.48;;;17.70;99.90;;;;;;4214192;28;20260;-80
2022/12/28 06:47:59;;;;;;;2.22;1.60;;;17.70;99.90;;;;;;4213350;28;20226;-81
2022/12/28 06:50:03;;;;;;;2.67;1.80;;;17.70;99.90;;;;;;4196477;28;20264;-81
2022/12/28 06:52:06;;;;;;;2.13;1.52;;;17.80;99.90;;;;;;4206522;28;20276;-81
2022/12/28 06:54:09;;;;;;;2.60;1.70;;;17.70;99.90;;;;;;4209796;28;20218;-80
2022/12/28 06:56:13;;;;;;;3.85;1.73;;;17.80;99.90;;;;;;4213130;28;20275;-81
2022/12/28 06:58:16;;;;;;;2.88;1.77;;;17.70;99.90;;;;;;4211172;28;20235;-80
2022/12/28 07:00:18;;;;;;;1.92;1.30;;;17.70;99.90;;;;;;4213972;28;20243;-80
2022/12/28 07:02:21;;;;;;;2.45;1.38;;;17.80;99.90;;;;;;4211583;28;20210;-80
2022/12/28 07:04:23;;;;;;;2.03;1.50;;;17.80;99.90;;;;;;4200233;28;20210;-80
2022/12/28 07:06:28;;;;;;;4.18;1.80;;;17.80;99.90;;;;;;4213922;28;20206;-80
2022/12/28 07:08:30;;;;;;;2.20;1.45;;;17.80;99.90;;;;;;4213636;28;20210;-80
2022/12/28 07:10:33;;;;;;;3.17;1.58;;;17.80;99.90;;;;;;4210012;28;20651;-80
2022/12/28 07:12:36;;;;;;;2.90;1.52;;;17.80;99.90;;;;;;4205812;28;20272;-80
2022/12/28 07:14:38;;;;;;;1.73;1.40;;;17.80;99.90;;;;;;4201962;28;20207;-80
2022/12/28 07:16:40;;;;;;;2.70;1.50;;;17.80;99.90;;;;;;4213755;28;20215;-79
2022/12/28 07:18:43;;;;;;;2.65;1.45;;;17.80;99.90;;;;;;4206182;28;20305;-80
2022/12/28 07:20:45;;;;;;;2.92;1.65;;;17.80;99.90;;;;;;4200999;28;20710;-81
2022/12/28 07:22:49;;;;;;;2.00;1.60;;;17.80;99.90;;;;;;4197072;28;20211;-81
2022/12/28 07:24:51;;;;;;;2.83;1.50;;;17.80;99.90;;;;;;4210539;28;20659;-80
2022/12/28 07:26:54;;;;;;;2.50;1.40;;;17.80;99.90;;;;;;4213708;28;20210;-80
2022/12/28 07:28:58;;;;;;;1.63;1.52;;;17.80;99.90;;;;;;4205136;28;20219;-80
2022/12/28 07:31:06;;;;;;;2.53;1.73;;;17.80;99.90;;;;;;4211513;28;20206;-80
2022/12/28 07:33:08;;;;;;;2.28;1.40;;;17.80;99.90;;;;;;4204222;28;20268;-81
2022/12/28 07:35:11;;;;;;;2.30;1.30;;;17.80;99.90;;;;;;4205664;28;20615;-80
2022/12/28 07:37:13;;;;;;;3.72;1.52;;;17.80;99.90;;;;;;4203234;28;20207;-80
2022/12/28 07:39:17;;;;;;;2.53;1.48;;;17.80;99.90;;;;;;4212536;28;20257;-81
2022/12/28 07:41:21;;;;;;;1.98;1.40;;;17.90;99.90;;;;;;4213467;28;20234;-80
2022/12/28 07:43:23;;;;;;;1.55;1.25;;;17.90;99.90;;;;;;4213188;28;20218;-80
2022/12/28 07:45:26;;;;;;;1.98;1.40;;;17.80;99.90;;;;;;4204531;28;20284;-81
2022/12/28 07:47:28;;;;;;;2.88;1.60;;;17.90;99.90;;;;;;4204861;28;20658;-80
2022/12/28 07:49:31;;;;;;;2.17;1.52;;;17.90;99.90;;;;;;4213085;28;20219;-80
2022/12/28 07:51:35;;;;;;;2.03;1.50;;;17.90;99.90;;;;;;4210166;28;20218;-81
2022/12/28 07:53:37;;;;;;;2.00;1.40;;;17.90;99.90;;;;;;4198800;28;20211;-81
2022/12/28 07:55:42;;;;;;;1.63;1.30;;;17.90;99.90;;;;;;4210265;28;20263;-81
2022/12/28 07:57:44;;;;;;;2.83;1.30;;;17.90;99.90;;;;;;4211121;28;20284;-80
2022/12/28 07:59:47;;;;;;;1.92;1.27;;;17.90;99.90;;;;;;4210977;28;20226;-81
2022/12/28 08:01:50;;;;;;;1.73;1.30;;;17.90;99.90;;;;;;4204729;28;20292;-80
2022/12/28 08:03:54;;;;;;;2.20;1.30;;;17.90;99.90;;;;;;4202508;28;20214;-80
2022/12/28 08:05:56;;;;;;;1.67;1.27;;;17.90;99.90;;;;;;4212508;28;20264;-80
2022/12/28 08:07:58;;;;;;;1.88;1.70;;;18.00;99.90;;;;;;4212795;28;20218;-81
2022/12/28 08:10:01;;;;;;;2.42;1.50;;;18.00;99.90;;;;;;4212493;28;20222;-80
2022/12/28 08:12:05;;;;;;;2.08;1.38;;;18.00;99.90;;;;;;4202212;28;20211;-81
2022/12/28 08:14:08;;;;;;;1.92;1.35;;;18.00;99.90;;;;;;4213380;28;20214;-80
2022/12/28 08:16:12;;;;;;;1.50;1.40;;;18.00;99.90;;;;;;4213012;28;20218;-81
2022/12/28 08:18:15;;;;;;;1.55;1.25;;;18.00;99.90;;;;;;4212932;28;20616;-81
2022/12/28 08:20:17;;;;;;;2.25;1.40;;;18.00;99.90;;;;;;4212215;28;20214;-80
2022/12/28 08:22:20;;;;;;;1.80;1.38;;;18.00;99.90;;;;;;4207664;28;20211;-81
2022/12/28 08:24:22;;;;;;;1.75;1.15;;;18.00;99.90;;;;;;4198706;28;20211;-80
2022/12/28 08:26:26;;;;;;;2.35;1.52;;;18.10;99.90;;;;;;4206407;28;20211;-80
2022/12/28 08:28:30;;;;;;;1.85;1.23;;;18.00;99.90;;;;;;4212817;28;20606;-80
2022/12/28 08:30:32;;;;;;;2.90;1.30;;;18.10;99.90;;;;;;4212877;28;20218;-80
2022/12/28 08:32:34;;;;;;;2.15;1.30;;;18.00;99.90;;;;;;4208563;28;20697;-80
2022/12/28 08:34:37;;;;;;;2.33;1.35;;;18.10;99.90;;;;;;4205549;28;20214;-71
2022/12/28 08:36:39;;;;;;;1.58;1.25;;;18.10;99.90;;;;;;4198316;28;20264;-71
2022/12/28 08:38:43;;;;;;;1.60;1.08;;;18.10;99.90;;;;;;4201008;28;20256;-71
2022/12/28 08:40:54;;;;;;;1.23;0.95;;;18.10;99.90;;;;;;4198763;28;20207;-71
2022/12/28 08:42:58;;;;;;;1.73;1.20;;;18.10;99.90;;;;;;4204193;28;20682;-71
2022/12/28 08:45:02;;;;;;;1.67;1.20;;;18.10;99.90;;;;;;4204707;28;20244;-71
2022/12/28 08:47:05;;;;;;;2.78;1.30;;;18.10;99.90;;;;;;4212310;28;20898;-71
2022/12/28 08:49:07;;;;;;;1.90;1.13;;;18.10;99.90;;;;;;4212463;28;20268;-71
2022/12/28 08:51:12;;;;;;;1.85;1.23;;;18.10;99.90;;;;;;4205421;28;20219;-71
2022/12/28 08:53:14;;;;;;;1.75;1.35;;;18.10;99.90;;;;;;4208515;28;20296;-71
2022/12/28 08:55:16;;;;;;;2.05;1.25;;;18.10;99.90;;;;;;4201809;28;20697;-71
2022/12/28 08:57:19;;;;;;;1.85;1.40;;;18.10;99.90;;;;;;4205847;28;20260;-72
2022/12/28 08:59:21;;;;;;;1.60;1.20;;;18.10;99.90;;;;;;4212053;28;20206;-71
2022/12/28 09:01:27;;;;;;;2.10;1.45;;;18.10;99.90;;;;;;4211843;28;20254;-71
2022/12/28 09:03:30;;;;;;;2.03;1.30;;;18.10;99.90;;;;;;4200042;28;20215;-71
2022/12/28 09:05:32;;;;;;;1.52;1.20;;;18.10;99.90;;;;;;4200892;28;20219;-71
2022/12/28 09:07:34;;;;;;;2.45;1.42;;;18.20;99.90;;;;;;4205462;28;20267;-71
2022/12/28 09:09:37;;;;;;;3.05;1.40;;;18.10;99.90;;;;;;4212058;28;20276;-71
2022/12/28 09:11:40;;;;;;;2.88;1.65;;;18.20;99.90;;;;;;4212330;28;20704;-71
2022/12/28 09:13:42;;;;;;;1.45;1.20;;;18.20;99.90;;;;;;4206719;28;20218;-71
2022/12/28 09:15:45;;;;;;;2.00;1.30;;;18.20;99.90;;;;;;4215137;28;20214;-71
2022/12/28 09:17:51;;;;;;;2.90;1.40;;;18.20;99.90;;;;;;4215290;28;20280;-71
2022/12/28 09:19:54;;;;;;;1.50;1.20;;;18.20;99.90;;;;;;4203037;28;20215;-71
2022/12/28 09:21:56;;;;;;;3.03;1.60;;;18.20;99.90;;;;;;4214670;28;20307;-71
2022/12/28 09:23:59;;;;;;;2.35;1.40;;;18.20;99.90;;;;;;4214748;28;20271;-71
2022/12/28 09:26:06;;;;;;;3.13;1.30;;;18.20;99.90;;;;;;4214766;28;20258;-71
2022/12/28 09:28:08;;;;;;;1.88;1.25;;;18.20;99.90;;;;;;4201903;28;20268;-71
2022/12/28 09:30:11;;;;;;;2.55;1.30;;;18.20;99.90;;;;;;4198210;28;20261;-71
2022/12/28 09:32:14;;;;;;;1.58;1.27;;;18.20;99.90;;;;;;4208440;28;20271;-71
2022/12/28 09:34:18;;;;;;;1.65;1.17;;;18.30;99.90;;;;;;4213079;28;20712;-71
2022/12/28 09:36:21;;;;;;;2.30;1.35;;;18.20;99.90;;;;;;4214681;28;20252;-71
2022/12/28 09:38:23;;;;;;;2.25;1.40;;;18.30;99.90;;;;;;4211943;28;20264;-71
2022/12/28 09:40:26;;;;;;;1.55;1.17;;;18.30;99.90;;;;;;4210123;28;20276;-71
2022/12/28 09:42:29;;;;;;;2.42;1.30;;;18.20;99.90;;;;;;4207260;28;20234;-71
2022/12/28 09:44:43;;;;;;;2.08;1.20;;;18.20;99.90;;;;;;4214369;28;20222;-71
2022/12/28 09:46:51;;;;;;;2.58;1.25;;;18.30;99.90;;;;;;4206433;28;20264;-71
2022/12/28 09:48:57;;;;;;;1.55;1.20;;;18.30;99.90;;;;;;4207544;28;20218;-71
2022/12/28 09:51:01;;;;;;;2.08;1.05;;;18.30;99.90;;;;;;4204040;28;20268;-71
2022/12/28 09:53:28;;;;;;;3.05;1.50;;;18.30;99.90;;;;;;4214320;28;20275;-71
2022/12/28 09:55:31;;;;;;;2.83;1.60;;;18.30;99.90;;;;;;4201432;28;20214;-71
2022/12/28 09:57:37;;;;;;;2.45;1.40;;;18.40;99.90;;;;;;4213880;28;20231;-71
2022/12/28 09:59:40;;;;;;;1.50;1.40;;;18.30;99.90;;;;;;4211884;28;20219;-71
2022/12/28 10:01:44;;;;;;;2.17;1.50;;;18.30;99.90;;;;;;4214473;28;20238;-71
2022/12/28 10:03:47;;;;;;;2.42;1.30;;;18.30;99.90;;;;;;4199633;28;20219;-71
2022/12/28 10:05:51;;;;;;;2.28;1.23;;;18.30;99.90;;;;;;4203584;28;20218;-71
2022/12/28 10:08:01;;;;;;;2.10;1.23;;;18.30;99.90;;;;;;4199763;28;20280;-71
2022/12/28 10:10:04;;;;;;;2.33;1.50;;;18.40;99.90;;;;;;4211165;28;20222;-71
2022/12/28 10:12:14;;;;;;;1.77;1.52;;;18.30;99.90;;;;;;4203096;28;20207;-71
2022/12/28 10:14:19;;;;;;;1.75;1.40;;;18.40;99.90;;;;;;4215187;28;20267;-71
2022/12/28 10:16:24;;;;;;;2.60;1.27;;;18.30;99.90;;;;;;4198048;28;20211;-71
2022/12/28 10:18:28;;;;;;;3.05;1.48;;;18.40;99.90;;;;;;4210555;28;20219;-71
2022/12/28 10:20:32;;;;;;;1.95;1.30;;;18.40;99.90;;;;;;4197553;28;20282;-71
2022/12/28 10:22:39;;;;;;;1.88;1.25;;;18.40;99.90;;;;;;4201900;28;20276;-71
2022/12/28 10:24:43;;;;;;;1.83;1.10;;;18.40;99.90;;;;;;4208750;28;20215;-71
2022/12/28 10:26:46;;;;;;;1.20;1.10;;;18.40;99.90;;;;;;4203788;28;20264;-71
2022/12/28 10:28:52;;;;;;;2.38;1.13;;;18.40;99.90;;;;;;4211312;28;20222;-71
2022/12/28 10:31:04;;;;;;;2.83;1.42;;;18.40;99.90;;;;;;4202018;28;20268;-71
2022/12/28 10:33:15;;;;;;;1.67;1.20;;;18.40;99.90;;;;;;4214193;28;20210;-71
2022/12/28 10:35:26;;;;;;;2.28;1.35;;;18.40;99.90;;;;;;4207753;28;20264;-71
2022/12/28 10:37:31;;;;;;;2.30;1.50;;;18.40;99.90;;;;;;4213406;28;20712;-71
2022/12/28 10:39:34;;;;;;;2.75;1.30;;;18.50;99.90;;;;;;4213732;28;20222;-71
2022/12/28 10:41:39;;;;;;;2.83;1.35;;;18.50;99.90;;;;;;4203321;28;20727;-71
2022/12/28 10:43:46;;;;;;;3.28;1.38;;;18.40;99.90;;;;;;4205698;28;20314;-71
2022/12/28 10:45:51;;;;;;;1.30;1.15;;;18.50;99.90;;;;;;4211139;28;20264;-71
2022/12/28 10:47:55;;;;;;;1.67;1.20;;;18.40;99.90;;;;;;4204210;28;20549;-71
2022/12/28 10:49:58;;;;;;;1.77;1.05;;;18.50;99.90;;;;;;4211252;28;20283;-71
2022/12/28 10:52:07;;;;;;;2.72;1.33;;;18.50;99.90;;;;;;4211476;28;21007;-71
2022/12/28 10:54:23;;;;;;;3.10;1.58;;;18.50;99.90;;;;;;4197631;28;20219;-71
2022/12/28 10:56:28;;;;;;;2.20;1.35;;;18.50;99.90;;;;;;4212857;28;20259;-71
2022/12/28 10:58:32;;;;;;;2.47;1.42;;;18.50;99.90;;;;;;4210355;28;20299;-71
2022/12/28 11:00:35;;;;;;;2.72;1.38;;;18.50;99.90;;;;;;4213106;28;20215;-71
2022/12/28 11:02:37;;;;;;;2.80;1.20;;;18.50;99.90;;;;;;4210683;28;20234;-71
2022/12/28 11:04:53;;;;;;;2.17;1.35;;;18.50;99.90;;;;;;4213172;28;20252;-71
2022/12/28 11:06:59;;;;;;;2.50;1.20;;;18.50;99.90;;;;;;4199517;28;20215;-71
2022/12/28 11:09:17;;;;;;;2.47;1.60;;;18.50;99.90;;;;;;4208459;28;20273;-71
2022/12/28 11:11:22;;;;;;;3.35;1.23;;;18.60;99.90;;;;;;4207960;28;20263;-71
2022/12/28 11:13:26;;;;;;;2.55;1.33;;;18.60;99.90;;;;;;4211941;28;20207;-71
2022/12/28 11:15:31;;;;;;;2.10;1.30;;;18.60;99.90;;;;;;4211828;28;20267;-71